Flight Track Log - Related Links

Times and Time Zones

All times are in EDT time to prevent confusion due to time zone crossing. See the PDT4147 flight status page for this flight to view local times or setup timezone preferences in your user account.

Time Position Orientation Groundspeed Altitude Reporting Facility
EDT Latitude Longitude Course Direction KTS MPH feet Rate Location/Type
Thu 04:35:00 PM 37.2154 -80.0500 180° South  Level FlightAware Approximate
Thu 04:36:00 PM 37.1485 -80.0500 180° South  Level FlightAware Approximate
Thu 04:37:00 PM 37.0815 -80.0500 180° South  Level FlightAware Approximate
Thu 04:38:00 PM 37.0171 -80.0324 177° South  Level FlightAware Approximate
Thu 04:39:00 PM 36.9530 -80.0286 177° South  Level FlightAware Approximate
Thu 04:40:00 PM 36.8889 -80.0248 177° South  Level FlightAware Approximate
Thu 04:41:00 PM 36.8247 -80.0210 177° South  Level FlightAware Approximate
Thu 04:42:00 PM 36.7606 -80.0173 177° South  Level FlightAware Approximate
Thu 04:43:00 PM 36.6964 -80.0154 177° South  Level FlightAware Approximate
Thu 04:44:00 PM 36.6323 -80.0114 177° South  Level FlightAware Approximate
Thu 04:45:00 PM 36.5682 -80.0074 177° South  Level FlightAware Approximate
Thu 04:46:00 PM 36.5041 -80.0034 177° South  Level FlightAware Approximate
Thu 04:47:00 PM 36.4400 -79.9987 174° South  Level FlightAware Approximate
Thu 04:48:00 PM 36.3761 -79.9908 174° South  Level FlightAware Approximate
Thu 04:49:00 PM 36.3122 -79.9831 177° South  Level FlightAware Approximate
Thu 04:50:00 PM 36.2481 -79.9793 177° South  Level FlightAware Approximate
Thu 04:51:00 PM 36.1839 -79.9755 177° South  Level FlightAware Approximate
Thu 04:52:00 PM 36.1198 -79.9717 177° South  Level FlightAware Approximate
Thu 04:53:00 PM 36.0557 -79.9680 177° South  Level FlightAware Approximate
Thu 04:54:00 PM 36.0063 -80.0061 230° Southwest  Level FlightAware Approximate
Thu 04:55:00 PM 35.9648 -80.0666 230° Southwest  Level FlightAware Approximate
Thu 04:55:22 PM 35.9694 -80.4211 227° Southwest 262 302 9,000  Level Atlanta Center
Thu 04:56:00 PM 35.9163 -80.1371 230° Southwest  Level FlightAware Approximate
Thu 04:56:17 PM 35.9119 -80.4544 205° Southwest 256 295 9,000  Level Atlanta Center
Thu 04:57:00 PM 35.8678 -80.2075 230° Southwest  Level FlightAware Approximate
Thu 04:57:18 PM 35.8464 -80.4906 204° Southwest 252 290 9,000  Level Atlanta Center
Thu 04:58:00 PM 35.8168 -80.2749 225° Southwest  Level FlightAware Approximate
Thu 04:58:25 PM 35.7725 -80.5347 206° Southwest 255 293 9,000  Level Atlanta Center
Thu 04:59:00 PM 35.7649 -80.3413 227° Southwest  Level FlightAware Approximate
Thu 04:59:26 PM 35.7047 -80.5683 202° Southwest 257 296 9,000  Level Atlanta Center
Thu 05:00:00 PM 35.7141 -80.4091 227° Southwest  Level FlightAware Approximate
Thu 05:00:15 PM 35.6575 -80.5961 206° Southwest 256 295 9,000  Level Atlanta Center
Thu 05:01:16 PM 35.5856 -80.6372 205° Southwest 255 293 9,000  Level Atlanta Center
Thu 05:02:23 PM 35.5181 -80.6808 208° Southwest 258 297 9,000  Level Atlanta Center
Thu 05:03:19 PM 35.4631 -80.7292 216° Southwest 260 299 9,000  Level Atlanta Center
Thu 05:04:20 PM 35.4058 -80.7772 214° Southwest 260 299 9,000  Level Atlanta Center
Thu 05:05:21 PM 35.3406 -80.8308 214° Southwest 261 300 9,000  Level Atlanta Center
Thu 05:06:22 PM 35.2714 -80.8283 178° South 249 287 9,000 -197 Level Atlanta Center
Thu 05:07:23 PM 35.2006 -80.8236 177° South 253 291 8,600 -639 Descending Atlanta Center
Thu 05:08:24 PM 35.1272 -80.8186 177° South 262 302 7,700 -984 Descending Atlanta Center
Thu 05:09:25 PM 35.0561 -80.8089 174° South 253 291 6,600 -1,131 Descending Atlanta Center
Thu 05:10:26 PM 34.9914 -80.8036 176° South 229 264 5,400 -1,138 Descending Atlanta Center
Thu 05:11:21 PM 34.9433 -80.8081 184° South 180 207 4,400 -730 Descending Atlanta Center
Thu 05:12:21 PM 34.8911 -80.8050 177° South 177 204 4,000 -198 Descending Atlanta Center
Thu 05:13:22 PM 34.8414 -80.8197 194° South 187 215 4,000  Level Atlanta Center
Thu 05:14:23 PM 34.8472 -80.8828 276° West 209 241 4,000  Level Atlanta Center
Thu 05:15:24 PM 34.8961 -80.9111 335° Northwest 194 223 4,000  Level Atlanta Center
Thu 05:16:25 PM 34.9464 -80.9194 352° North 180 207 4,000  Level Atlanta Center
Thu 05:17:20 PM 34.9922 -80.9178 North 177 204 4,000 -103 Level Atlanta Center
Thu 05:18:21 PM 35.0444 -80.9233 355° North 183 211 3,800 -197 Descending Atlanta Center

Login

Don't have an account? Register now (free) for customized features, flight alerts, and more!